Aurora, CO (80015)

12:55 AM MST on January 24, 2017 (GMT -0700)
TigerDenWX | | Change Station

Elev 5715 ft 39.64 °N, 104.79 °W | Updated 1 second ago

Mostly Cloudy
Mostly Cloudy
33.2 °F
Feels Like 33 °F
N
0.0
Wind Variable Wind from North
Gusts 3.0 mph

Today
High -- | Low -- °F
--% Chance of Precip.
Yesterday
High -- | Low -- °F
Precip. -- in
Pressure 29.49 in
Visibility 10.0 miles
Clouds Few 1800 ft
Overcast 10000 ft
Windchill 33 °F
Dew Point 27 °F
Humidity 79%
Rainfall 0.00 in
Snow Depth Not available.
7:13 AM 5:10 PM
Waning Crescent, 13% visible
METAR KAPA 240653Z 33009KT 10SM FEW018 OVC100 00/M03 A2951 RMK AO2 SLP986 T00001033 401061044 $
Pressure 29.49 in
Visibility 10.0 miles
Clouds Few 1800 ft
Overcast 10000 ft
Windchill 33 °F
Dew Point 27 °F
Humidity 79%
Rainfall 0.00 in
Snow Depth Not available.
7:13 AM 5:10 PM
Waning Crescent, 13% visible
METAR KAPA 240653Z 33009KT 10SM FEW018 OVC100 00/M03 A2951 RMK AO2 SLP986 T00001033 401061044 $

Get Your Daily Forecast Email!

Thanks for signing up!

Be on the lookout for a verification email in your inbox.

You'll start receiving the daily forecast at 8 AM.

×

10-Day Weather Forecast

Almanac

Astronomy

Jan. 24, 2017 Rise Set
Actual Time
Civil Twilight
Nautical Twilight
Astronomical Twilight
Moon
Length of Visible Light
Length of Day
Tomorrow will be .
, % of the Moon is Illuminated

Today's Extremes

State Highs State Lows

Community

WunderPhotos

Upload Photos

1,962,540 photos uploaded!

WunderBlog® & News

Nearby

Air Quality

  Air Quality AQ Index Pollutant
Not available.

Snow Depth

Station Depth Elevation

Earthquake Activity

City Distance Mag. Time & Date
Minimum magnitude displayed is 2.5.

Coastal Water Temperatures

Place Temperature

Stations

Nearby Weather Stations

Station Location Temp. Windchill Dew Point Humidity Wind Precip. Elev Updated Type
                   

Watches & Warnings

There are currently no watches in effect.